< < Back
Terminal Aerodrome Forecast


Current Version              Previous Versions:   1  2  3  4  5  6  7  8  9  

Terminal Aerodrome Forecast

640
FTUS42 KFFC 200500
TAFMCN
TAF
KMCN 200529Z 2006/2106 25004KT P6SM FEW009 BKN250
     FM200900 24002KT 5SM BR SCT015
     FM201200 26004KT P6SM BKN020
     FM201500 29007KT P6SM SCT035
     FM201700 28009KT P6SM SCT045 PROB30 2018/2022 4SM -TSRA
      BKN030CB
     FM210200 27003KT P6SM SCT050=

Latest METAR

649
SAUS80 KWBC 200800 RRA
MTRMCN
METAR KMCN 200753Z AUTO 00000KT 10SM CLR 22/21 A2995 RMK AO2 SLP136
T02170211 TSNO


USA.gov is the U.S. government's official web portal to all federal, state and local government web resources and services.